Upper Matecumbe Key, Florida
Current Conditions -  °F | °C
As of 1:53 AM on Sunday 23 Nov 2014 (Local Time) from KMTH Reporting Station
Few Clouds Few Clouds  
Wind Chill: 78°   Ceiling: Unl
Heat Index: 81°   Visibility: 10mi
Dew Point: 74°   Wind: 12mph
Humidity: 87%   Direction: 120°ESE
Pressure: 30"   Gusts: 21mph
Location:  24.8649°N, 80.7192°W
Report Text: KMTH 230653Z AUTO 12010G18KT 10SM FEW020 26/23 A3000 RMK AO2 SLP159 T02560233
Loading
Personal Weather Stations






























Interactive Weather Map New forecast layout! Learn more

10-Day Weather Forecast

Advertisements
Track Severe Weather on mobile